sensor_id;sensor_type;location;lat;lon;timestamp;P1;durP1;ratioP1;P2;durP2;ratioP2
80273;SDS011;69576;51.902;-8.462;2023-12-20T00:01:36;7.80;;;1.77;;
80273;SDS011;69576;51.902;-8.462;2023-12-20T00:04:04;6.95;;;1.95;;
80273;SDS011;69576;51.902;-8.462;2023-12-20T00:06:31;6.25;;;2.30;;
80273;SDS011;69576;51.902;-8.462;2023-12-20T00:08:57;6.60;;;1.92;;
80273;SDS011;69576;51.902;-8.462;2023-12-20T00:11:27;5.57;;;1.52;;
80273;SDS011;69576;51.902;-8.462;2023-12-20T00:13:53;7.70;;;1.60;;
80273;SDS011;69576;51.902;-8.462;2023-12-20T00:16:20;3.70;;;1.70;;
80273;SDS011;69576;51.902;-8.462;2023-12-20T00:18:49;10.57;;;2.42;;
80273;SDS011;69576;51.902;-8.462;2023-12-20T00:21:17;9.95;;;2.03;;
80273;SDS011;69576;51.902;-8.462;2023-12-20T00:23:43;5.45;;;1.80;;
80273;SDS011;69576;51.902;-8.462;2023-12-20T00:26:08;7.28;;;1.90;;
80273;SDS011;69576;51.902;-8.462;2023-12-20T00:28:34;4.10;;;1.30;;
80273;SDS011;69576;51.902;-8.462;2023-12-20T00:31:00;7.43;;;1.50;;
80273;SDS011;69576;51.902;-8.462;2023-12-20T00:33:28;11.10;;;1.70;;
80273;SDS011;69576;51.902;-8.462;2023-12-20T00:35:53;6.38;;;1.80;;
80273;SDS011;69576;51.902;-8.462;2023-12-20T00:38:21;5.85;;;1.90;;
80273;SDS011;69576;51.902;-8.462;2023-12-20T00:40:47;3.83;;;1.38;;
80273;SDS011;69576;51.902;-8.462;2023-12-20T00:43:14;4.30;;;1.83;;
80273;SDS011;69576;51.902;-8.462;2023-12-20T00:45:45;4.72;;;1.38;;
80273;SDS011;69576;51.902;-8.462;2023-12-20T00:48:11;4.90;;;1.40;;
80273;SDS011;69576;51.902;-8.462;2023-12-20T00:50:37;6.95;;;1.83;;
80273;SDS011;69576;51.902;-8.462;2023-12-20T00:53:04;4.25;;;1.08;;
80273;SDS011;69576;51.902;-8.462;2023-12-20T00:55:30;7.57;;;1.20;;
80273;SDS011;69576;51.902;-8.462;2023-12-20T00:57:59;4.97;;;1.73;;
80273;SDS011;69576;51.902;-8.462;2023-12-20T01:00:27;3.78;;;1.48;;
80273;SDS011;69576;51.902;-8.462;2023-12-20T01:02:52;5.95;;;1.40;;
80273;SDS011;69576;51.902;-8.462;2023-12-20T01:05:18;5.32;;;1.67;;
80273;SDS011;69576;51.902;-8.462;2023-12-20T01:07:44;6.00;;;1.42;;
80273;SDS011;69576;51.902;-8.462;2023-12-20T01:10:10;6.07;;;1.80;;
80273;SDS011;69576;51.902;-8.462;2023-12-20T01:12:36;6.95;;;1.80;;
80273;SDS011;69576;51.902;-8.462;2023-12-20T01:15:04;6.15;;;1.33;;
80273;SDS011;69576;51.902;-8.462;2023-12-20T01:17:35;6.10;;;1.42;;
80273;SDS011;69576;51.902;-8.462;2023-12-20T01:20:03;8.60;;;1.48;;
80273;SDS011;69576;51.902;-8.462;2023-12-20T01:22:33;6.72;;;1.40;;
80273;SDS011;69576;51.902;-8.462;2023-12-20T01:25:00;3.25;;;1.30;;
80273;SDS011;69576;51.902;-8.462;2023-12-20T01:27:27;3.05;;;1.20;;
80273;SDS011;69576;51.902;-8.462;2023-12-20T01:29:53;4.82;;;1.23;;
80273;SDS011;69576;51.902;-8.462;2023-12-20T01:32:21;8.98;;;2.03;;
80273;SDS011;69576;51.902;-8.462;2023-12-20T01:34:47;6.20;;;1.50;;
80273;SDS011;69576;51.902;-8.462;2023-12-20T01:37:16;8.48;;;1.42;;
80273;SDS011;69576;51.902;-8.462;2023-12-20T01:39:48;4.47;;;1.10;;
80273;SDS011;69576;51.902;-8.462;2023-12-20T01:42:14;4.18;;;1.30;;
80273;SDS011;69576;51.902;-8.462;2023-12-20T01:44:42;3.53;;;1.38;;
80273;SDS011;69576;51.902;-8.462;2023-12-20T01:47:13;4.75;;;1.17;;
80273;SDS011;69576;51.902;-8.462;2023-12-20T01:49:39;8.85;;;1.30;;
80273;SDS011;69576;51.902;-8.462;2023-12-20T01:52:07;2.47;;;1.00;;
80273;SDS011;69576;51.902;-8.462;2023-12-20T01:54:34;3.03;;;0.93;;
80273;SDS011;69576;51.902;-8.462;2023-12-20T01:57:00;4.25;;;0.85;;
80273;SDS011;69576;51.902;-8.462;2023-12-20T01:59:28;2.97;;;1.48;;
80273;SDS011;69576;51.902;-8.462;2023-12-20T02:01:57;4.00;;;1.20;;
80273;SDS011;69576;51.902;-8.462;2023-12-20T02:04:22;2.28;;;0.80;;
80273;SDS011;69576;51.902;-8.462;2023-12-20T02:06:52;3.30;;;0.95;;
80273;SDS011;69576;51.902;-8.462;2023-12-20T02:09:21;5.40;;;1.00;;
80273;SDS011;69576;51.902;-8.462;2023-12-20T02:11:47;4.28;;;0.90;;
80273;SDS011;69576;51.902;-8.462;2023-12-20T02:14:15;1.38;;;0.88;;
80273;SDS011;69576;51.902;-8.462;2023-12-20T02:16:44;3.47;;;0.68;;
80273;SDS011;69576;51.902;-8.462;2023-12-20T02:19:13;3.28;;;0.82;;
80273;SDS011;69576;51.902;-8.462;2023-12-20T02:21:41;3.95;;;1.42;;
80273;SDS011;69576;51.902;-8.462;2023-12-20T02:24:07;1.65;;;0.50;;
80273;SDS011;69576;51.902;-8.462;2023-12-20T02:26:33;1.77;;;0.70;;
80273;SDS011;69576;51.902;-8.462;2023-12-20T02:29:03;2.20;;;1.15;;
80273;SDS011;69576;51.902;-8.462;2023-12-20T02:31:29;0.50;;;0.40;;
80273;SDS011;69576;51.902;-8.462;2023-12-20T02:33:55;1.17;;;0.30;;
80273;SDS011;69576;51.902;-8.462;2023-12-20T02:36:21;1.00;;;0.70;;
80273;SDS011;69576;51.902;-8.462;2023-12-20T02:38:46;2.17;;;0.60;;
80273;SDS011;69576;51.902;-8.462;2023-12-20T02:41:17;4.07;;;1.13;;
80273;SDS011;69576;51.902;-8.462;2023-12-20T02:43:45;1.42;;;0.60;;
80273;SDS011;69576;51.902;-8.462;2023-12-20T02:46:10;3.55;;;0.73;;
80273;SDS011;69576;51.902;-8.462;2023-12-20T02:48:38;1.48;;;0.70;;
80273;SDS011;69576;51.902;-8.462;2023-12-20T02:51:04;2.30;;;0.85;;
80273;SDS011;69576;51.902;-8.462;2023-12-20T02:53:30;3.38;;;0.65;;
80273;SDS011;69576;51.902;-8.462;2023-12-20T02:55:58;1.85;;;1.00;;
80273;SDS011;69576;51.902;-8.462;2023-12-20T02:58:26;3.85;;;0.63;;
80273;SDS011;69576;51.902;-8.462;2023-12-20T03:00:52;4.78;;;1.17;;
80273;SDS011;69576;51.902;-8.462;2023-12-20T03:03:18;2.47;;;1.40;;
80273;SDS011;69576;51.902;-8.462;2023-12-20T03:05:48;2.70;;;0.75;;
80273;SDS011;69576;51.902;-8.462;2023-12-20T03:08:14;3.63;;;0.73;;
80273;SDS011;69576;51.902;-8.462;2023-12-20T03:10:40;1.15;;;0.60;;
80273;SDS011;69576;51.902;-8.462;2023-12-20T03:13:05;2.50;;;0.73;;
80273;SDS011;69576;51.902;-8.462;2023-12-20T03:15:33;2.60;;;1.00;;
80273;SDS011;69576;51.902;-8.462;2023-12-20T03:17:59;5.88;;;1.45;;
80273;SDS011;69576;51.902;-8.462;2023-12-20T03:20:27;2.92;;;1.02;;
80273;SDS011;69576;51.902;-8.462;2023-12-20T03:22:53;1.08;;;0.90;;
80273;SDS011;69576;51.902;-8.462;2023-12-20T03:25:19;1.55;;;0.85;;
80273;SDS011;69576;51.902;-8.462;2023-12-20T03:27:45;5.07;;;1.33;;
80273;SDS011;69576;51.902;-8.462;2023-12-20T03:30:13;2.80;;;1.05;;
80273;SDS011;69576;51.902;-8.462;2023-12-20T03:32:39;2.92;;;1.13;;
80273;SDS011;69576;51.902;-8.462;2023-12-20T03:35:05;1.60;;;1.08;;
80273;SDS011;69576;51.902;-8.462;2023-12-20T03:37:33;4.05;;;0.90;;
80273;SDS011;69576;51.902;-8.462;2023-12-20T03:39:59;2.00;;;0.90;;
80273;SDS011;69576;51.902;-8.462;2023-12-20T03:42:27;1.98;;;0.95;;
80273;SDS011;69576;51.902;-8.462;2023-12-20T03:44:55;3.22;;;0.73;;
80273;SDS011;69576;51.902;-8.462;2023-12-20T03:47:21;3.85;;;1.08;;
80273;SDS011;69576;51.902;-8.462;2023-12-20T03:49:47;2.28;;;1.05;;
80273;SDS011;69576;51.902;-8.462;2023-12-20T03:52:15;0.93;;;0.47;;
80273;SDS011;69576;51.902;-8.462;2023-12-20T03:54:41;6.10;;;1.30;;
80273;SDS011;69576;51.902;-8.462;2023-12-20T03:57:07;0.93;;;0.77;;
80273;SDS011;69576;51.902;-8.462;2023-12-20T03:59:37;2.47;;;0.80;;
80273;SDS011;69576;51.902;-8.462;2023-12-20T04:02:07;1.50;;;0.70;;
80273;SDS011;69576;51.902;-8.462;2023-12-20T04:04:32;4.45;;;1.45;;
80273;SDS011;69576;51.902;-8.462;2023-12-20T04:07:03;0.88;;;0.57;;
80273;SDS011;69576;51.902;-8.462;2023-12-20T04:09:31;4.28;;;0.95;;
80273;SDS011;69576;51.902;-8.462;2023-12-20T04:11:57;0.73;;;0.68;;
80273;SDS011;69576;51.902;-8.462;2023-12-20T04:14:25;3.28;;;0.68;;
80273;SDS011;69576;51.902;-8.462;2023-12-20T04:16:53;5.60;;;1.20;;
80273;SDS011;69576;51.902;-8.462;2023-12-20T04:19:19;5.57;;;1.23;;
80273;SDS011;69576;51.902;-8.462;2023-12-20T04:21:47;3.20;;;0.85;;
80273;SDS011;69576;51.902;-8.462;2023-12-20T04:24:13;1.42;;;0.45;;
80273;SDS011;69576;51.902;-8.462;2023-12-20T04:26:39;5.20;;;1.45;;
80273;SDS011;69576;51.902;-8.462;2023-12-20T04:29:09;1.55;;;0.90;;
80273;SDS011;69576;51.902;-8.462;2023-12-20T04:31:35;6.22;;;1.00;;
80273;SDS011;69576;51.902;-8.462;2023-12-20T04:34:01;3.17;;;1.00;;
80273;SDS011;69576;51.902;-8.462;2023-12-20T04:36:26;4.00;;;1.23;;
80273;SDS011;69576;51.902;-8.462;2023-12-20T04:38:54;1.35;;;0.57;;
80273;SDS011;69576;51.902;-8.462;2023-12-20T04:41:23;7.25;;;0.82;;
80273;SDS011;69576;51.902;-8.462;2023-12-20T04:43:48;1.45;;;0.75;;
80273;SDS011;69576;51.902;-8.462;2023-12-20T04:46:14;3.15;;;0.77;;
80273;SDS011;69576;51.902;-8.462;2023-12-20T04:48:40;3.75;;;1.10;;
80273;SDS011;69576;51.902;-8.462;2023-12-20T04:51:08;2.05;;;0.60;;
80273;SDS011;69576;51.902;-8.462;2023-12-20T04:53:38;2.78;;;0.88;;
80273;SDS011;69576;51.902;-8.462;2023-12-20T04:56:06;2.58;;;0.85;;
80273;SDS011;69576;51.902;-8.462;2023-12-20T04:58:32;4.97;;;1.17;;
80273;SDS011;69576;51.902;-8.462;2023-12-20T05:01:00;7.15;;;1.30;;
80273;SDS011;69576;51.902;-8.462;2023-12-20T05:03:28;5.30;;;1.10;;
80273;SDS011;69576;51.902;-8.462;2023-12-20T05:05:54;2.15;;;0.70;;
80273;SDS011;69576;51.902;-8.462;2023-12-20T05:08:20;3.53;;;0.82;;
80273;SDS011;69576;51.902;-8.462;2023-12-20T05:10:46;5.97;;;1.30;;
80273;SDS011;69576;51.902;-8.462;2023-12-20T05:13:17;5.90;;;1.08;;
80273;SDS011;69576;51.902;-8.462;2023-12-20T05:15:42;2.55;;;0.77;;
80273;SDS011;69576;51.902;-8.462;2023-12-20T05:18:08;3.05;;;0.68;;
80273;SDS011;69576;51.902;-8.462;2023-12-20T05:20:36;3.50;;;0.60;;
80273;SDS011;69576;51.902;-8.462;2023-12-20T05:23:09;3.88;;;1.02;;
80273;SDS011;69576;51.902;-8.462;2023-12-20T05:25:36;0.95;;;0.43;;
80273;SDS011;69576;51.902;-8.462;2023-12-20T05:28:02;5.30;;;1.10;;
80273;SDS011;69576;51.902;-8.462;2023-12-20T05:30:30;1.00;;;0.70;;
80273;SDS011;69576;51.902;-8.462;2023-12-20T05:32:56;3.67;;;0.95;;
80273;SDS011;69576;51.902;-8.462;2023-12-20T05:35:24;2.28;;;0.93;;
80273;SDS011;69576;51.902;-8.462;2023-12-20T05:37:52;3.85;;;0.90;;
80273;SDS011;69576;51.902;-8.462;2023-12-20T05:40:18;1.75;;;0.73;;
80273;SDS011;69576;51.902;-8.462;2023-12-20T05:42:45;4.32;;;1.00;;
80273;SDS011;69576;51.902;-8.462;2023-12-20T05:45:11;1.20;;;0.68;;
80273;SDS011;69576;51.902;-8.462;2023-12-20T05:47:37;2.95;;;0.82;;
80273;SDS011;69576;51.902;-8.462;2023-12-20T05:50:03;2.53;;;1.05;;
80273;SDS011;69576;51.902;-8.462;2023-12-20T05:52:29;8.15;;;0.90;;
80273;SDS011;69576;51.902;-8.462;2023-12-20T05:54:55;3.25;;;0.70;;
80273;SDS011;69576;51.902;-8.462;2023-12-20T05:57:23;5.53;;;1.25;;
80273;SDS011;69576;51.902;-8.462;2023-12-20T05:59:48;1.23;;;0.60;;
80273;SDS011;69576;51.902;-8.462;2023-12-20T06:02:16;3.15;;;0.82;;
80273;SDS011;69576;51.902;-8.462;2023-12-20T06:04:42;2.63;;;0.70;;
80273;SDS011;69576;51.902;-8.462;2023-12-20T06:07:11;3.67;;;1.50;;
80273;SDS011;69576;51.902;-8.462;2023-12-20T06:09:42;1.27;;;0.75;;
80273;SDS011;69576;51.902;-8.462;2023-12-20T06:12:08;2.28;;;0.80;;
80273;SDS011;69576;51.902;-8.462;2023-12-20T06:14:34;0.65;;;0.45;;
80273;SDS011;69576;51.902;-8.462;2023-12-20T06:17:00;2.30;;;0.80;;
80273;SDS011;69576;51.902;-8.462;2023-12-20T06:19:28;5.22;;;1.25;;
80273;SDS011;69576;51.902;-8.462;2023-12-20T06:21:54;3.67;;;0.95;;
80273;SDS011;69576;51.902;-8.462;2023-12-20T06:24:22;1.92;;;0.70;;
80273;SDS011;69576;51.902;-8.462;2023-12-20T06:26:52;3.25;;;0.90;;
80273;SDS011;69576;51.902;-8.462;2023-12-20T06:29:25;5.80;;;1.88;;
80273;SDS011;69576;51.902;-8.462;2023-12-20T06:31:53;1.58;;;0.80;;
80273;SDS011;69576;51.902;-8.462;2023-12-20T06:34:19;1.42;;;0.80;;
80273;SDS011;69576;51.902;-8.462;2023-12-20T06:36:47;4.55;;;1.10;;
80273;SDS011;69576;51.902;-8.462;2023-12-20T06:39:12;1.05;;;0.75;;
80273;SDS011;69576;51.902;-8.462;2023-12-20T06:41:40;2.67;;;0.63;;
80273;SDS011;69576;51.902;-8.462;2023-12-20T06:44:08;7.00;;;1.50;;
80273;SDS011;69576;51.902;-8.462;2023-12-20T06:46:36;2.83;;;0.77;;
80273;SDS011;69576;51.902;-8.462;2023-12-20T06:49:06;3.45;;;1.02;;
80273;SDS011;69576;51.902;-8.462;2023-12-20T06:51:32;6.07;;;1.05;;
80273;SDS011;69576;51.902;-8.462;2023-12-20T06:53:58;4.90;;;1.65;;
80273;SDS011;69576;51.902;-8.462;2023-12-20T06:56:25;7.28;;;1.73;;
80273;SDS011;69576;51.902;-8.462;2023-12-20T06:58:50;7.95;;;1.92;;
80273;SDS011;69576;51.902;-8.462;2023-12-20T07:01:19;1.35;;;0.35;;
80273;SDS011;69576;51.902;-8.462;2023-12-20T07:03:50;0.93;;;0.55;;
80273;SDS011;69576;51.902;-8.462;2023-12-20T07:06:15;3.70;;;1.25;;
80273;SDS011;69576;51.902;-8.462;2023-12-20T07:08:42;9.77;;;2.17;;
80273;SDS011;69576;51.902;-8.462;2023-12-20T07:11:08;6.45;;;1.88;;
80273;SDS011;69576;51.902;-8.462;2023-12-20T07:13:36;4.25;;;1.33;;
80273;SDS011;69576;51.902;-8.462;2023-12-20T07:16:04;4.07;;;1.30;;
80273;SDS011;69576;51.902;-8.462;2023-12-20T07:18:30;1.85;;;0.75;;
80273;SDS011;69576;51.902;-8.462;2023-12-20T07:20:55;5.55;;;1.15;;
80273;SDS011;69576;51.902;-8.462;2023-12-20T07:23:23;5.60;;;1.52;;
80273;SDS011;69576;51.902;-8.462;2023-12-20T07:25:50;4.93;;;1.30;;
80273;SDS011;69576;51.902;-8.462;2023-12-20T07:28:18;1.63;;;0.80;;
80273;SDS011;69576;51.902;-8.462;2023-12-20T07:30:46;1.45;;;0.90;;
80273;SDS011;69576;51.902;-8.462;2023-12-20T07:33:12;1.90;;;0.98;;
80273;SDS011;69576;51.902;-8.462;2023-12-20T07:35:40;2.90;;;1.20;;
80273;SDS011;69576;51.902;-8.462;2023-12-20T07:38:05;3.30;;;1.15;;
80273;SDS011;69576;51.902;-8.462;2023-12-20T07:40:31;3.63;;;1.20;;
80273;SDS011;69576;51.902;-8.462;2023-12-20T07:42:59;4.53;;;1.00;;
80273;SDS011;69576;51.902;-8.462;2023-12-20T07:45:25;2.67;;;1.00;;
80273;SDS011;69576;51.902;-8.462;2023-12-20T07:47:56;5.07;;;1.50;;
80273;SDS011;69576;51.902;-8.462;2023-12-20T07:50:24;3.03;;;0.68;;
80273;SDS011;69576;51.902;-8.462;2023-12-20T07:52:50;4.05;;;1.25;;
80273;SDS011;69576;51.902;-8.462;2023-12-20T07:55:18;7.38;;;0.90;;
80273;SDS011;69576;51.902;-8.462;2023-12-20T07:57:44;4.18;;;1.00;;
80273;SDS011;69576;51.902;-8.462;2023-12-20T08:00:09;4.80;;;0.90;;
80273;SDS011;69576;51.902;-8.462;2023-12-20T08:02:36;4.40;;;1.20;;
80273;SDS011;69576;51.902;-8.462;2023-12-20T08:05:03;3.75;;;1.15;;
80273;SDS011;69576;51.902;-8.462;2023-12-20T08:07:29;3.00;;;0.77;;
80273;SDS011;69576;51.902;-8.462;2023-12-20T08:10:00;4.22;;;0.82;;
80273;SDS011;69576;51.902;-8.462;2023-12-20T08:12:28;2.80;;;1.83;;
80273;SDS011;69576;51.902;-8.462;2023-12-20T08:14:59;3.17;;;0.98;;
80273;SDS011;69576;51.902;-8.462;2023-12-20T08:17:25;2.25;;;1.33;;
80273;SDS011;69576;51.902;-8.462;2023-12-20T08:19:53;2.22;;;0.52;;
80273;SDS011;69576;51.902;-8.462;2023-12-20T08:22:21;5.15;;;1.38;;
80273;SDS011;69576;51.902;-8.462;2023-12-20T08:24:49;6.47;;;1.30;;
80273;SDS011;69576;51.902;-8.462;2023-12-20T08:27:15;3.47;;;1.45;;
80273;SDS011;69576;51.902;-8.462;2023-12-20T08:29:43;3.53;;;1.00;;
80273;SDS011;69576;51.902;-8.462;2023-12-20T08:32:11;4.28;;;1.48;;
80273;SDS011;69576;51.902;-8.462;2023-12-20T08:34:37;3.90;;;1.33;;
80273;SDS011;69576;51.902;-8.462;2023-12-20T08:37:03;3.25;;;1.27;;
80273;SDS011;69576;51.902;-8.462;2023-12-20T08:39:29;6.53;;;1.60;;
80273;SDS011;69576;51.902;-8.462;2023-12-20T08:41:55;6.13;;;1.05;;
80273;SDS011;69576;51.902;-8.462;2023-12-20T08:44:20;6.43;;;1.40;;
80273;SDS011;69576;51.902;-8.462;2023-12-20T08:46:48;4.55;;;1.60;;
80273;SDS011;69576;51.902;-8.462;2023-12-20T08:49:14;4.95;;;1.27;;
80273;SDS011;69576;51.902;-8.462;2023-12-20T08:51:42;5.20;;;1.65;;
80273;SDS011;69576;51.902;-8.462;2023-12-20T08:54:10;3.03;;;1.40;;
80273;SDS011;69576;51.902;-8.462;2023-12-20T08:56:38;4.32;;;1.77;;
80273;SDS011;69576;51.902;-8.462;2023-12-20T08:59:06;10.38;;;2.72;;
80273;SDS011;69576;51.902;-8.462;2023-12-20T09:01:32;7.43;;;2.20;;
80273;SDS011;69576;51.902;-8.462;2023-12-20T09:04:00;7.28;;;1.75;;
80273;SDS011;69576;51.902;-8.462;2023-12-20T09:06:26;3.65;;;1.20;;
80273;SDS011;69576;51.902;-8.462;2023-12-20T09:08:54;3.53;;;1.10;;
80273;SDS011;69576;51.902;-8.462;2023-12-20T09:11:20;3.95;;;1.52;;
80273;SDS011;69576;51.902;-8.462;2023-12-20T09:13:48;9.43;;;1.60;;
80273;SDS011;69576;51.902;-8.462;2023-12-20T09:16:14;6.55;;;1.38;;
80273;SDS011;69576;51.902;-8.462;2023-12-20T09:18:41;9.88;;;1.90;;
80273;SDS011;69576;51.902;-8.462;2023-12-20T09:23:35;10.93;;;1.88;;
80273;SDS011;69576;51.902;-8.462;2023-12-20T09:26:02;4.75;;;1.70;;
80273;SDS011;69576;51.902;-8.462;2023-12-20T09:28:30;5.75;;;1.30;;
80273;SDS011;69576;51.902;-8.462;2023-12-20T09:30:57;6.97;;;2.92;;
80273;SDS011;69576;51.902;-8.462;2023-12-20T09:33:25;8.93;;;1.95;;
80273;SDS011;69576;51.902;-8.462;2023-12-20T09:35:51;7.38;;;1.50;;
80273;SDS011;69576;51.902;-8.462;2023-12-20T09:38:17;10.57;;;2.45;;
80273;SDS011;69576;51.902;-8.462;2023-12-20T09:40:45;10.82;;;2.35;;
80273;SDS011;69576;51.902;-8.462;2023-12-20T09:43:11;7.05;;;2.65;;
80273;SDS011;69576;51.902;-8.462;2023-12-20T09:45:43;9.05;;;2.45;;
80273;SDS011;69576;51.902;-8.462;2023-12-20T09:48:11;8.50;;;2.00;;
80273;SDS011;69576;51.902;-8.462;2023-12-20T09:50:39;13.27;;;2.00;;
80273;SDS011;69576;51.902;-8.462;2023-12-20T09:53:08;5.97;;;1.98;;
80273;SDS011;69576;51.902;-8.462;2023-12-20T09:55:39;5.97;;;1.95;;
80273;SDS011;69576;51.902;-8.462;2023-12-20T09:58:11;8.00;;;1.42;;
80273;SDS011;69576;51.902;-8.462;2023-12-20T10:00:39;5.47;;;1.60;;
80273;SDS011;69576;51.902;-8.462;2023-12-20T10:03:05;8.48;;;2.70;;
80273;SDS011;69576;51.902;-8.462;2023-12-20T10:05:32;6.95;;;2.13;;
80273;SDS011;69576;51.902;-8.462;2023-12-20T10:08:01;9.18;;;1.80;;
80273;SDS011;69576;51.902;-8.462;2023-12-20T10:10:29;5.60;;;2.53;;
80273;SDS011;69576;51.902;-8.462;2023-12-20T10:13:02;12.80;;;2.50;;
80273;SDS011;69576;51.902;-8.462;2023-12-20T10:15:33;8.90;;;2.22;;
80273;SDS011;69576;51.902;-8.462;2023-12-20T10:18:00;5.93;;;1.58;;
80273;SDS011;69576;51.902;-8.462;2023-12-20T10:20:29;13.23;;;2.60;;
80273;SDS011;69576;51.902;-8.462;2023-12-20T10:22:57;8.32;;;2.22;;
80273;SDS011;69576;51.902;-8.462;2023-12-20T10:25:24;11.25;;;2.05;;
80273;SDS011;69576;51.902;-8.462;2023-12-20T10:30:38;9.38;;;2.85;;
80273;SDS011;69576;51.902;-8.462;2023-12-20T10:33:05;5.05;;;0.95;;
80273;SDS011;69576;51.902;-8.462;2023-12-20T10:35:32;6.03;;;1.17;;
80273;SDS011;69576;51.902;-8.462;2023-12-20T10:38:00;13.93;;;2.13;;
80273;SDS011;69576;51.902;-8.462;2023-12-20T10:40:29;10.68;;;2.38;;
80273;SDS011;69576;51.902;-8.462;2023-12-20T10:42:56;17.15;;;3.17;;
80273;SDS011;69576;51.902;-8.462;2023-12-20T10:45:23;15.43;;;3.38;;
80273;SDS011;69576;51.902;-8.462;2023-12-20T10:47:51;11.65;;;2.38;;
80273;SDS011;69576;51.902;-8.462;2023-12-20T10:50:19;17.17;;;2.80;;
80273;SDS011;69576;51.902;-8.462;2023-12-20T10:52:46;7.95;;;2.17;;
80273;SDS011;69576;51.902;-8.462;2023-12-20T10:55:16;11.65;;;1.88;;
80273;SDS011;69576;51.902;-8.462;2023-12-20T10:57:44;6.65;;;1.90;;
80273;SDS011;69576;51.902;-8.462;2023-12-20T11:00:15;9.20;;;2.08;;
80273;SDS011;69576;51.902;-8.462;2023-12-20T11:02:46;15.68;;;2.88;;
80273;SDS011;69576;51.902;-8.462;2023-12-20T11:05:22;10.98;;;2.33;;
80273;SDS011;69576;51.902;-8.462;2023-12-20T11:10:33;11.13;;;3.08;;
80273;SDS011;69576;51.902;-8.462;2023-12-20T11:13:19;9.73;;;1.73;;
80273;SDS011;69576;51.902;-8.462;2023-12-20T11:15:48;17.83;;;2.60;;
80273;SDS011;69576;51.902;-8.462;2023-12-20T11:18:14;15.18;;;2.17;;
80273;SDS011;69576;51.902;-8.462;2023-12-20T11:20:40;15.52;;;2.85;;
80273;SDS011;69576;51.902;-8.462;2023-12-20T11:23:10;7.38;;;0.85;;
80273;SDS011;69576;51.902;-8.462;2023-12-20T11:28:16;8.95;;;2.08;;
80273;SDS011;69576;51.902;-8.462;2023-12-20T11:33:18;7.63;;;2.40;;
80273;SDS011;69576;51.902;-8.462;2023-12-20T11:35:47;11.48;;;3.85;;
80273;SDS011;69576;51.902;-8.462;2023-12-20T11:38:20;14.75;;;2.53;;
80273;SDS011;69576;51.902;-8.462;2023-12-20T11:40:48;11.63;;;2.90;;
80273;SDS011;69576;51.902;-8.462;2023-12-20T11:46:08;19.88;;;4.40;;
80273;SDS011;69576;51.902;-8.462;2023-12-20T11:48:35;8.70;;;2.15;;
80273;SDS011;69576;51.902;-8.462;2023-12-20T11:51:02;12.93;;;2.80;;
80273;SDS011;69576;51.902;-8.462;2023-12-20T11:53:36;13.02;;;2.60;;
80273;SDS011;69576;51.902;-8.462;2023-12-20T11:56:10;10.05;;;2.25;;
80273;SDS011;69576;51.902;-8.462;2023-12-20T11:58:40;15.30;;;2.55;;
80273;SDS011;69576;51.902;-8.462;2023-12-20T12:01:06;2.70;;;1.23;;
80273;SDS011;69576;51.902;-8.462;2023-12-20T12:03:34;12.18;;;3.75;;
80273;SDS011;69576;51.902;-8.462;2023-12-20T12:06:00;10.15;;;1.92;;
80273;SDS011;69576;51.902;-8.462;2023-12-20T12:08:29;7.90;;;2.05;;
80273;SDS011;69576;51.902;-8.462;2023-12-20T12:10:57;16.58;;;3.28;;
80273;SDS011;69576;51.902;-8.462;2023-12-20T12:13:23;12.65;;;3.22;;
80273;SDS011;69576;51.902;-8.462;2023-12-20T12:18:20;18.25;;;2.50;;
80273;SDS011;69576;51.902;-8.462;2023-12-20T12:20:48;12.82;;;2.97;;
80273;SDS011;69576;51.902;-8.462;2023-12-20T12:23:22;11.02;;;2.72;;
80273;SDS011;69576;51.902;-8.462;2023-12-20T12:25:51;10.65;;;1.63;;
80273;SDS011;69576;51.902;-8.462;2023-12-20T12:28:17;6.57;;;2.22;;
80273;SDS011;69576;51.902;-8.462;2023-12-20T12:30:43;17.33;;;3.97;;
80273;SDS011;69576;51.902;-8.462;2023-12-20T12:33:23;11.90;;;3.78;;
80273;SDS011;69576;51.902;-8.462;2023-12-20T12:35:52;14.77;;;2.72;;
80273;SDS011;69576;51.902;-8.462;2023-12-20T12:38:20;10.45;;;2.05;;
80273;SDS011;69576;51.902;-8.462;2023-12-20T12:40:51;13.00;;;2.78;;
80273;SDS011;69576;51.902;-8.462;2023-12-20T12:43:20;5.72;;;2.20;;
80273;SDS011;69576;51.902;-8.462;2023-12-20T12:45:51;16.65;;;2.97;;
80273;SDS011;69576;51.902;-8.462;2023-12-20T12:48:18;19.27;;;3.72;;
80273;SDS011;69576;51.902;-8.462;2023-12-20T12:50:47;16.00;;;4.53;;
80273;SDS011;69576;51.902;-8.462;2023-12-20T12:53:16;17.65;;;3.25;;
80273;SDS011;69576;51.902;-8.462;2023-12-20T12:55:43;21.42;;;3.75;;
80273;SDS011;69576;51.902;-8.462;2023-12-20T12:58:09;11.45;;;2.55;;
80273;SDS011;69576;51.902;-8.462;2023-12-20T13:00:36;13.80;;;4.07;;
80273;SDS011;69576;51.902;-8.462;2023-12-20T13:03:02;13.02;;;3.63;;
80273;SDS011;69576;51.902;-8.462;2023-12-20T13:05:30;14.50;;;4.55;;
80273;SDS011;69576;51.902;-8.462;2023-12-20T13:07:56;22.48;;;5.45;;
80273;SDS011;69576;51.902;-8.462;2023-12-20T13:10:23;11.00;;;2.95;;
80273;SDS011;69576;51.902;-8.462;2023-12-20T13:12:51;21.50;;;3.72;;
80273;SDS011;69576;51.902;-8.462;2023-12-20T13:15:17;11.50;;;3.85;;
80273;SDS011;69576;51.902;-8.462;2023-12-20T13:17:43;11.07;;;5.60;;
80273;SDS011;69576;51.902;-8.462;2023-12-20T13:20:13;15.82;;;3.97;;
80273;SDS011;69576;51.902;-8.462;2023-12-20T13:22:41;15.90;;;3.42;;
80273;SDS011;69576;51.902;-8.462;2023-12-20T13:25:07;11.15;;;2.33;;
80273;SDS011;69576;51.902;-8.462;2023-12-20T13:27:33;12.85;;;3.25;;
80273;SDS011;69576;51.902;-8.462;2023-12-20T13:29:59;12.63;;;4.22;;
80273;SDS011;69576;51.902;-8.462;2023-12-20T13:32:25;11.88;;;5.22;;
80273;SDS011;69576;51.902;-8.462;2023-12-20T13:34:51;24.48;;;4.75;;
80273;SDS011;69576;51.902;-8.462;2023-12-20T13:37:17;18.38;;;4.15;;
80273;SDS011;69576;51.902;-8.462;2023-12-20T13:39:45;13.48;;;3.47;;
80273;SDS011;69576;51.902;-8.462;2023-12-20T13:42:11;10.05;;;2.35;;
80273;SDS011;69576;51.902;-8.462;2023-12-20T13:44:39;8.57;;;3.42;;
80273;SDS011;69576;51.902;-8.462;2023-12-20T13:47:05;10.80;;;3.85;;
80273;SDS011;69576;51.902;-8.462;2023-12-20T13:49:33;13.10;;;4.28;;
80273;SDS011;69576;51.902;-8.462;2023-12-20T13:52:00;16.00;;;3.95;;
80273;SDS011;69576;51.902;-8.462;2023-12-20T13:54:26;7.65;;;3.70;;
80273;SDS011;69576;51.902;-8.462;2023-12-20T13:56:53;12.30;;;2.35;;
80273;SDS011;69576;51.902;-8.462;2023-12-20T13:59:22;11.90;;;3.83;;
80273;SDS011;69576;51.902;-8.462;2023-12-20T14:01:48;13.35;;;3.75;;
80273;SDS011;69576;51.902;-8.462;2023-12-20T14:04:16;22.67;;;5.03;;
80273;SDS011;69576;51.902;-8.462;2023-12-20T14:06:44;16.27;;;3.55;;
80273;SDS011;69576;51.902;-8.462;2023-12-20T14:09:12;11.82;;;2.75;;
80273;SDS011;69576;51.902;-8.462;2023-12-20T14:11:40;17.75;;;3.50;;
80273;SDS011;69576;51.902;-8.462;2023-12-20T14:14:07;14.82;;;4.03;;
80273;SDS011;69576;51.902;-8.462;2023-12-20T14:16:33;17.38;;;3.13;;
80273;SDS011;69576;51.902;-8.462;2023-12-20T14:19:05;18.75;;;2.95;;
80273;SDS011;69576;51.902;-8.462;2023-12-20T14:21:37;14.70;;;3.08;;
80273;SDS011;69576;51.902;-8.462;2023-12-20T14:24:02;18.73;;;3.10;;
80273;SDS011;69576;51.902;-8.462;2023-12-20T14:26:29;10.82;;;3.13;;
80273;SDS011;69576;51.902;-8.462;2023-12-20T14:28:55;6.32;;;2.67;;
80273;SDS011;69576;51.902;-8.462;2023-12-20T14:31:23;13.63;;;3.00;;
80273;SDS011;69576;51.902;-8.462;2023-12-20T14:33:50;8.43;;;2.55;;
80273;SDS011;69576;51.902;-8.462;2023-12-20T14:38:45;12.13;;;3.15;;
80273;SDS011;69576;51.902;-8.462;2023-12-20T14:41:12;11.35;;;2.88;;
80273;SDS011;69576;51.902;-8.462;2023-12-20T14:43:37;9.57;;;2.70;;
80273;SDS011;69576;51.902;-8.462;2023-12-20T14:46:05;13.23;;;2.35;;
80273;SDS011;69576;51.902;-8.462;2023-12-20T14:48:31;10.55;;;2.53;;
80273;SDS011;69576;51.902;-8.462;2023-12-20T14:50:59;13.00;;;4.75;;
80273;SDS011;69576;51.902;-8.462;2023-12-20T14:53:26;7.63;;;2.20;;